sensor_id;sensor_type;location;lat;lon;timestamp;P1;durP1;ratioP1;P2;durP2;ratioP2
1204;SDS011;592;48.764;9.174;2022-08-19T00:01:17;19.60;;;16.43;;
1204;SDS011;592;48.764;9.174;2022-08-19T00:03:43;21.00;;;16.93;;
1204;SDS011;592;48.764;9.174;2022-08-19T00:06:10;19.10;;;15.80;;
1204;SDS011;592;48.764;9.174;2022-08-19T00:08:38;22.57;;;17.70;;
1204;SDS011;592;48.764;9.174;2022-08-19T00:11:05;21.90;;;16.70;;
1204;SDS011;592;48.764;9.174;2022-08-19T00:13:32;20.83;;;16.80;;
1204;SDS011;592;48.764;9.174;2022-08-19T00:15:59;20.97;;;16.40;;
1204;SDS011;592;48.764;9.174;2022-08-19T00:18:27;19.60;;;15.90;;
1204;SDS011;592;48.764;9.174;2022-08-19T00:20:53;18.33;;;16.07;;
1204;SDS011;592;48.764;9.174;2022-08-19T00:23:20;21.53;;;16.73;;
1204;SDS011;592;48.764;9.174;2022-08-19T00:25:48;22.17;;;16.80;;
1204;SDS011;592;48.764;9.174;2022-08-19T00:28:15;19.20;;;15.80;;
1204;SDS011;592;48.764;9.174;2022-08-19T00:30:42;19.80;;;16.13;;
1204;SDS011;592;48.764;9.174;2022-08-19T00:33:09;20.40;;;17.47;;
1204;SDS011;592;48.764;9.174;2022-08-19T00:35:36;23.73;;;17.00;;
1204;SDS011;592;48.764;9.174;2022-08-19T00:38:03;27.13;;;17.60;;
1204;SDS011;592;48.764;9.174;2022-08-19T00:40:31;22.43;;;16.50;;
1204;SDS011;592;48.764;9.174;2022-08-19T00:42:59;19.63;;;16.80;;
1204;SDS011;592;48.764;9.174;2022-08-19T00:45:28;22.37;;;16.93;;
1204;SDS011;592;48.764;9.174;2022-08-19T00:47:57;21.83;;;16.70;;
1204;SDS011;592;48.764;9.174;2022-08-19T00:50:28;20.67;;;16.10;;
1204;SDS011;592;48.764;9.174;2022-08-19T00:52:55;22.20;;;17.00;;
1204;SDS011;592;48.764;9.174;2022-08-19T00:55:23;20.07;;;17.20;;
1204;SDS011;592;48.764;9.174;2022-08-19T00:57:55;21.63;;;16.60;;
1204;SDS011;592;48.764;9.174;2022-08-19T01:00:28;19.73;;;16.83;;
1204;SDS011;592;48.764;9.174;2022-08-19T01:02:55;21.97;;;17.53;;
1204;SDS011;592;48.764;9.174;2022-08-19T01:05:23;21.30;;;17.10;;
1204;SDS011;592;48.764;9.174;2022-08-19T01:07:52;22.07;;;17.53;;
1204;SDS011;592;48.764;9.174;2022-08-19T01:10:20;22.53;;;17.73;;
1204;SDS011;592;48.764;9.174;2022-08-19T01:12:50;24.47;;;18.10;;
1204;SDS011;592;48.764;9.174;2022-08-19T01:15:18;23.70;;;17.97;;
1204;SDS011;592;48.764;9.174;2022-08-19T01:17:49;19.33;;;15.73;;
1204;SDS011;592;48.764;9.174;2022-08-19T01:20:18;23.40;;;16.20;;
1204;SDS011;592;48.764;9.174;2022-08-19T01:22:49;22.10;;;16.70;;
1204;SDS011;592;48.764;9.174;2022-08-19T01:25:19;19.13;;;16.57;;
1204;SDS011;592;48.764;9.174;2022-08-19T01:27:48;19.83;;;17.00;;
1204;SDS011;592;48.764;9.174;2022-08-19T01:30:17;21.33;;;17.40;;
1204;SDS011;592;48.764;9.174;2022-08-19T01:32:48;19.20;;;16.20;;
1204;SDS011;592;48.764;9.174;2022-08-19T01:35:15;20.87;;;17.30;;
1204;SDS011;592;48.764;9.174;2022-08-19T01:37:44;20.67;;;17.80;;
1204;SDS011;592;48.764;9.174;2022-08-19T01:40:15;19.77;;;16.97;;
1204;SDS011;592;48.764;9.174;2022-08-19T01:42:45;21.93;;;17.50;;
1204;SDS011;592;48.764;9.174;2022-08-19T01:45:12;22.63;;;18.23;;
1204;SDS011;592;48.764;9.174;2022-08-19T01:47:39;19.60;;;16.93;;
1204;SDS011;592;48.764;9.174;2022-08-19T01:50:07;20.80;;;17.87;;
1204;SDS011;592;48.764;9.174;2022-08-19T01:52:36;23.13;;;18.10;;
1204;SDS011;592;48.764;9.174;2022-08-19T01:55:03;23.47;;;18.23;;
1204;SDS011;592;48.764;9.174;2022-08-19T01:57:34;22.07;;;17.57;;
1204;SDS011;592;48.764;9.174;2022-08-19T02:00:04;23.27;;;18.67;;
1204;SDS011;592;48.764;9.174;2022-08-19T02:02:33;24.50;;;18.23;;
1204;SDS011;592;48.764;9.174;2022-08-19T02:05:00;22.37;;;17.97;;
1204;SDS011;592;48.764;9.174;2022-08-19T02:07:27;22.17;;;16.93;;
1204;SDS011;592;48.764;9.174;2022-08-19T02:09:54;21.60;;;17.57;;
1204;SDS011;592;48.764;9.174;2022-08-19T02:12:21;25.87;;;19.50;;
1204;SDS011;592;48.764;9.174;2022-08-19T02:14:49;20.37;;;17.17;;
1204;SDS011;592;48.764;9.174;2022-08-19T02:17:15;23.13;;;18.23;;
1204;SDS011;592;48.764;9.174;2022-08-19T02:19:43;23.43;;;18.33;;
1204;SDS011;592;48.764;9.174;2022-08-19T02:22:09;21.50;;;17.40;;
1204;SDS011;592;48.764;9.174;2022-08-19T02:24:36;25.20;;;19.97;;
1204;SDS011;592;48.764;9.174;2022-08-19T02:27:03;23.73;;;19.10;;
1204;SDS011;592;48.764;9.174;2022-08-19T02:29:30;24.87;;;20.03;;
1204;SDS011;592;48.764;9.174;2022-08-19T02:31:59;22.93;;;18.23;;
1204;SDS011;592;48.764;9.174;2022-08-19T02:34:25;24.47;;;19.30;;
1204;SDS011;592;48.764;9.174;2022-08-19T02:36:52;25.50;;;20.17;;
1204;SDS011;592;48.764;9.174;2022-08-19T02:39:19;25.87;;;20.10;;
1204;SDS011;592;48.764;9.174;2022-08-19T02:41:44;27.00;;;19.20;;
1204;SDS011;592;48.764;9.174;2022-08-19T02:44:11;25.40;;;19.73;;
1204;SDS011;592;48.764;9.174;2022-08-19T02:46:38;24.00;;;19.90;;
1204;SDS011;592;48.764;9.174;2022-08-19T02:49:06;27.03;;;20.50;;
1204;SDS011;592;48.764;9.174;2022-08-19T02:51:34;26.57;;;21.27;;
1204;SDS011;592;48.764;9.174;2022-08-19T02:54:03;25.73;;;19.07;;
1204;SDS011;592;48.764;9.174;2022-08-19T02:56:33;27.07;;;21.10;;
1204;SDS011;592;48.764;9.174;2022-08-19T02:59:01;27.50;;;20.63;;
1204;SDS011;592;48.764;9.174;2022-08-19T03:01:29;27.60;;;21.70;;
1204;SDS011;592;48.764;9.174;2022-08-19T03:04:03;28.37;;;21.63;;
1204;SDS011;592;48.764;9.174;2022-08-19T03:06:34;27.70;;;21.60;;
1204;SDS011;592;48.764;9.174;2022-08-19T03:09:02;25.40;;;20.60;;
1204;SDS011;592;48.764;9.174;2022-08-19T03:11:30;30.20;;;22.80;;
1204;SDS011;592;48.764;9.174;2022-08-19T03:13:58;26.27;;;20.93;;
1204;SDS011;592;48.764;9.174;2022-08-19T03:16:26;31.60;;;23.10;;
1204;SDS011;592;48.764;9.174;2022-08-19T03:18:57;27.23;;;22.57;;
1204;SDS011;592;48.764;9.174;2022-08-19T03:21:26;27.77;;;21.03;;
1204;SDS011;592;48.764;9.174;2022-08-19T03:23:55;31.97;;;23.90;;
1204;SDS011;592;48.764;9.174;2022-08-19T03:26:23;30.20;;;22.50;;
1204;SDS011;592;48.764;9.174;2022-08-19T03:28:50;28.37;;;22.03;;
1204;SDS011;592;48.764;9.174;2022-08-19T03:31:17;29.73;;;24.10;;
1204;SDS011;592;48.764;9.174;2022-08-19T03:33:46;31.10;;;24.70;;
1204;SDS011;592;48.764;9.174;2022-08-19T03:36:14;28.90;;;23.13;;
1204;SDS011;592;48.764;9.174;2022-08-19T03:38:44;29.43;;;23.10;;
1204;SDS011;592;48.764;9.174;2022-08-19T03:41:15;29.47;;;22.47;;
1204;SDS011;592;48.764;9.174;2022-08-19T03:43:44;32.00;;;24.90;;
1204;SDS011;592;48.764;9.174;2022-08-19T03:46:15;31.80;;;24.10;;
1204;SDS011;592;48.764;9.174;2022-08-19T03:48:45;35.90;;;25.20;;
1204;SDS011;592;48.764;9.174;2022-08-19T03:51:16;30.50;;;24.37;;
1204;SDS011;592;48.764;9.174;2022-08-19T03:53:44;30.90;;;24.60;;
1204;SDS011;592;48.764;9.174;2022-08-19T03:56:10;30.47;;;25.20;;
1204;SDS011;592;48.764;9.174;2022-08-19T03:58:39;31.13;;;24.40;;
1204;SDS011;592;48.764;9.174;2022-08-19T04:01:07;31.10;;;24.27;;
1204;SDS011;592;48.764;9.174;2022-08-19T04:03:35;31.33;;;26.50;;
1204;SDS011;592;48.764;9.174;2022-08-19T04:06:08;31.60;;;25.30;;
1204;SDS011;592;48.764;9.174;2022-08-19T04:08:37;31.23;;;26.73;;
1204;SDS011;592;48.764;9.174;2022-08-19T04:11:06;34.93;;;26.20;;
1204;SDS011;592;48.764;9.174;2022-08-19T04:13:33;28.60;;;24.40;;
1204;SDS011;592;48.764;9.174;2022-08-19T04:16:02;30.70;;;24.23;;
1204;SDS011;592;48.764;9.174;2022-08-19T04:18:29;30.00;;;23.80;;
1204;SDS011;592;48.764;9.174;2022-08-19T04:20:56;32.10;;;25.77;;
1204;SDS011;592;48.764;9.174;2022-08-19T04:23:22;31.20;;;25.63;;
1204;SDS011;592;48.764;9.174;2022-08-19T04:25:49;34.33;;;24.53;;
1204;SDS011;592;48.764;9.174;2022-08-19T04:28:16;32.30;;;26.00;;
1204;SDS011;592;48.764;9.174;2022-08-19T04:30:44;37.10;;;28.70;;
1204;SDS011;592;48.764;9.174;2022-08-19T04:33:14;33.70;;;27.60;;
1204;SDS011;592;48.764;9.174;2022-08-19T04:35:43;34.13;;;27.63;;
1204;SDS011;592;48.764;9.174;2022-08-19T04:38:14;33.27;;;27.80;;
1204;SDS011;592;48.764;9.174;2022-08-19T04:40:41;34.83;;;26.67;;
1204;SDS011;592;48.764;9.174;2022-08-19T04:43:26;37.53;;;27.23;;
1204;SDS011;592;48.764;9.174;2022-08-19T04:45:53;34.43;;;26.87;;
1204;SDS011;592;48.764;9.174;2022-08-19T04:48:22;32.33;;;26.80;;
1204;SDS011;592;48.764;9.174;2022-08-19T04:50:51;36.63;;;28.10;;
1204;SDS011;592;48.764;9.174;2022-08-19T04:53:22;34.33;;;27.50;;
1204;SDS011;592;48.764;9.174;2022-08-19T04:55:53;38.93;;;28.90;;
1204;SDS011;592;48.764;9.174;2022-08-19T04:58:21;33.23;;;26.73;;
1204;SDS011;592;48.764;9.174;2022-08-19T05:00:48;33.30;;;26.57;;
1204;SDS011;592;48.764;9.174;2022-08-19T05:03:16;35.07;;;26.37;;
1204;SDS011;592;48.764;9.174;2022-08-19T05:05:44;32.80;;;26.70;;
1204;SDS011;592;48.764;9.174;2022-08-19T05:08:13;31.10;;;25.57;;
1204;SDS011;592;48.764;9.174;2022-08-19T05:10:44;32.50;;;25.63;;
1204;SDS011;592;48.764;9.174;2022-08-19T05:13:13;38.90;;;27.50;;
1204;SDS011;592;48.764;9.174;2022-08-19T05:15:40;33.57;;;27.37;;
1204;SDS011;592;48.764;9.174;2022-08-19T05:18:07;32.40;;;27.10;;
1204;SDS011;592;48.764;9.174;2022-08-19T05:20:53;32.67;;;26.77;;
1204;SDS011;592;48.764;9.174;2022-08-19T05:23:38;33.23;;;26.70;;
1204;SDS011;592;48.764;9.174;2022-08-19T05:26:05;35.10;;;26.23;;
1204;SDS011;592;48.764;9.174;2022-08-19T05:28:32;31.80;;;26.83;;
1204;SDS011;592;48.764;9.174;2022-08-19T05:30:58;33.90;;;28.47;;
1204;SDS011;592;48.764;9.174;2022-08-19T05:33:25;35.67;;;27.40;;
1204;SDS011;592;48.764;9.174;2022-08-19T05:35:53;34.70;;;27.83;;
1204;SDS011;592;48.764;9.174;2022-08-19T05:38:21;32.53;;;26.10;;
1204;SDS011;592;48.764;9.174;2022-08-19T05:40:47;33.83;;;26.77;;
1204;SDS011;592;48.764;9.174;2022-08-19T05:43:14;33.17;;;26.70;;
1204;SDS011;592;48.764;9.174;2022-08-19T05:45:41;35.30;;;25.97;;
1204;SDS011;592;48.764;9.174;2022-08-19T05:48:09;35.37;;;27.93;;
1204;SDS011;592;48.764;9.174;2022-08-19T05:50:37;31.80;;;26.77;;
1204;SDS011;592;48.764;9.174;2022-08-19T05:53:05;34.93;;;28.43;;
1204;SDS011;592;48.764;9.174;2022-08-19T05:55:33;32.40;;;28.67;;
1204;SDS011;592;48.764;9.174;2022-08-19T05:58:01;34.20;;;24.67;;
1204;SDS011;592;48.764;9.174;2022-08-19T06:00:28;35.43;;;27.50;;
1204;SDS011;592;48.764;9.174;2022-08-19T06:02:56;37.67;;;27.10;;
1204;SDS011;592;48.764;9.174;2022-08-19T06:05:28;38.70;;;27.73;;
1204;SDS011;592;48.764;9.174;2022-08-19T06:07:54;31.90;;;25.63;;
1204;SDS011;592;48.764;9.174;2022-08-19T06:10:23;35.20;;;26.93;;
1204;SDS011;592;48.764;9.174;2022-08-19T06:12:49;35.33;;;27.20;;
1204;SDS011;592;48.764;9.174;2022-08-19T06:15:16;34.70;;;27.20;;
1204;SDS011;592;48.764;9.174;2022-08-19T06:17:43;29.17;;;24.23;;
1204;SDS011;592;48.764;9.174;2022-08-19T06:20:11;32.30;;;26.13;;
1204;SDS011;592;48.764;9.174;2022-08-19T06:22:40;32.93;;;25.80;;
1204;SDS011;592;48.764;9.174;2022-08-19T06:25:08;35.90;;;24.70;;
1204;SDS011;592;48.764;9.174;2022-08-19T06:27:37;32.80;;;26.03;;
1204;SDS011;592;48.764;9.174;2022-08-19T06:30:04;31.33;;;24.53;;
1204;SDS011;592;48.764;9.174;2022-08-19T06:32:32;35.00;;;27.53;;
1204;SDS011;592;48.764;9.174;2022-08-19T06:34:58;34.87;;;27.10;;
1204;SDS011;592;48.764;9.174;2022-08-19T06:37:25;31.37;;;25.63;;
1204;SDS011;592;48.764;9.174;2022-08-19T06:39:52;35.37;;;27.47;;
1204;SDS011;592;48.764;9.174;2022-08-19T06:42:19;34.07;;;25.73;;
1204;SDS011;592;48.764;9.174;2022-08-19T06:44:47;34.70;;;26.17;;
1204;SDS011;592;48.764;9.174;2022-08-19T06:47:15;32.73;;;25.80;;
1204;SDS011;592;48.764;9.174;2022-08-19T06:49:44;33.73;;;25.33;;
1204;SDS011;592;48.764;9.174;2022-08-19T06:52:11;33.13;;;26.63;;
1204;SDS011;592;48.764;9.174;2022-08-19T06:54:39;32.40;;;27.30;;
1204;SDS011;592;48.764;9.174;2022-08-19T06:57:06;33.53;;;28.40;;
1204;SDS011;592;48.764;9.174;2022-08-19T06:59:38;31.97;;;25.97;;
1204;SDS011;592;48.764;9.174;2022-08-19T07:02:07;32.70;;;27.37;;
1204;SDS011;592;48.764;9.174;2022-08-19T07:04:35;31.97;;;26.37;;
1204;SDS011;592;48.764;9.174;2022-08-19T07:07:04;31.90;;;25.90;;
1204;SDS011;592;48.764;9.174;2022-08-19T07:09:34;31.73;;;24.53;;
1204;SDS011;592;48.764;9.174;2022-08-19T07:12:03;32.87;;;26.90;;
1204;SDS011;592;48.764;9.174;2022-08-19T07:14:31;36.23;;;27.10;;
1204;SDS011;592;48.764;9.174;2022-08-19T07:17:00;36.13;;;28.10;;
1204;SDS011;592;48.764;9.174;2022-08-19T07:19:28;34.83;;;27.70;;
1204;SDS011;592;48.764;9.174;2022-08-19T07:21:56;31.03;;;25.90;;
1204;SDS011;592;48.764;9.174;2022-08-19T07:24:25;32.30;;;26.23;;
1204;SDS011;592;48.764;9.174;2022-08-19T07:26:53;34.47;;;26.77;;
1204;SDS011;592;48.764;9.174;2022-08-19T07:29:28;30.03;;;25.03;;
1204;SDS011;592;48.764;9.174;2022-08-19T07:31:58;32.63;;;26.67;;
1204;SDS011;592;48.764;9.174;2022-08-19T07:34:26;31.67;;;27.93;;
1204;SDS011;592;48.764;9.174;2022-08-19T07:36:55;32.37;;;25.80;;
1204;SDS011;592;48.764;9.174;2022-08-19T07:39:23;32.70;;;24.77;;
1204;SDS011;592;48.764;9.174;2022-08-19T07:41:52;33.33;;;27.40;;
1204;SDS011;592;48.764;9.174;2022-08-19T07:44:20;32.47;;;26.00;;
1204;SDS011;592;48.764;9.174;2022-08-19T07:46:48;31.77;;;24.63;;
1204;SDS011;592;48.764;9.174;2022-08-19T07:49:17;30.27;;;24.00;;
1204;SDS011;592;48.764;9.174;2022-08-19T07:51:45;31.43;;;25.63;;
1204;SDS011;592;48.764;9.174;2022-08-19T07:54:14;34.13;;;25.77;;
1204;SDS011;592;48.764;9.174;2022-08-19T07:56:41;32.27;;;24.77;;
1204;SDS011;592;48.764;9.174;2022-08-19T07:59:08;31.90;;;25.60;;
1204;SDS011;592;48.764;9.174;2022-08-19T08:01:34;29.67;;;25.07;;
1204;SDS011;592;48.764;9.174;2022-08-19T08:04:02;29.20;;;24.30;;
1204;SDS011;592;48.764;9.174;2022-08-19T08:06:48;29.90;;;25.37;;
1204;SDS011;592;48.764;9.174;2022-08-19T08:09:35;26.80;;;22.60;;
1204;SDS011;592;48.764;9.174;2022-08-19T08:12:05;31.47;;;22.83;;
1204;SDS011;592;48.764;9.174;2022-08-19T08:14:36;33.90;;;24.03;;
1204;SDS011;592;48.764;9.174;2022-08-19T08:17:06;27.70;;;24.20;;
1204;SDS011;592;48.764;9.174;2022-08-19T08:19:34;27.33;;;23.60;;
1204;SDS011;592;48.764;9.174;2022-08-19T08:22:02;29.80;;;23.50;;
1204;SDS011;592;48.764;9.174;2022-08-19T08:24:31;29.27;;;23.83;;
1204;SDS011;592;48.764;9.174;2022-08-19T08:26:58;30.53;;;23.10;;
1204;SDS011;592;48.764;9.174;2022-08-19T08:29:26;27.20;;;24.13;;
1204;SDS011;592;48.764;9.174;2022-08-19T08:31:54;31.93;;;23.43;;
1204;SDS011;592;48.764;9.174;2022-08-19T08:34:22;30.30;;;26.00;;
1204;SDS011;592;48.764;9.174;2022-08-19T08:36:49;28.70;;;24.27;;
1204;SDS011;592;48.764;9.174;2022-08-19T08:39:19;28.60;;;24.30;;
1204;SDS011;592;48.764;9.174;2022-08-19T08:41:49;37.63;;;26.80;;
1204;SDS011;592;48.764;9.174;2022-08-19T08:44:22;31.40;;;24.97;;
1204;SDS011;592;48.764;9.174;2022-08-19T08:46:55;30.13;;;23.87;;
1204;SDS011;592;48.764;9.174;2022-08-19T08:49:26;36.10;;;24.73;;
1204;SDS011;592;48.764;9.174;2022-08-19T08:51:58;28.73;;;22.60;;
1204;SDS011;592;48.764;9.174;2022-08-19T08:54:30;28.50;;;24.23;;
1204;SDS011;592;48.764;9.174;2022-08-19T08:57:00;27.57;;;23.90;;
1204;SDS011;592;48.764;9.174;2022-08-19T08:59:34;29.63;;;23.00;;
1204;SDS011;592;48.764;9.174;2022-08-19T09:02:05;30.53;;;23.50;;
1204;SDS011;592;48.764;9.174;2022-08-19T09:04:33;29.00;;;23.93;;
1204;SDS011;592;48.764;9.174;2022-08-19T09:07:04;31.20;;;24.87;;
1204;SDS011;592;48.764;9.174;2022-08-19T09:09:50;28.57;;;24.40;;
1204;SDS011;592;48.764;9.174;2022-08-19T09:12:25;28.93;;;23.87;;
1204;SDS011;592;48.764;9.174;2022-08-19T09:15:04;28.90;;;23.47;;
1204;SDS011;592;48.764;9.174;2022-08-19T09:17:34;32.00;;;22.93;;
1204;SDS011;592;48.764;9.174;2022-08-19T09:20:05;28.70;;;24.60;;
1204;SDS011;592;48.764;9.174;2022-08-19T09:22:40;29.63;;;25.67;;
1204;SDS011;592;48.764;9.174;2022-08-19T09:25:11;26.60;;;22.07;;
1204;SDS011;592;48.764;9.174;2022-08-19T09:27:40;29.77;;;23.87;;
1204;SDS011;592;48.764;9.174;2022-08-19T09:30:08;27.03;;;21.70;;
1204;SDS011;592;48.764;9.174;2022-08-19T09:32:37;27.43;;;22.60;;
1204;SDS011;592;48.764;9.174;2022-08-19T09:35:07;27.40;;;23.50;;
1204;SDS011;592;48.764;9.174;2022-08-19T09:37:34;30.77;;;22.67;;
1204;SDS011;592;48.764;9.174;2022-08-19T09:40:01;33.17;;;24.60;;
1204;SDS011;592;48.764;9.174;2022-08-19T09:42:30;28.53;;;22.43;;
1204;SDS011;592;48.764;9.174;2022-08-19T09:44:57;25.17;;;21.50;;
1204;SDS011;592;48.764;9.174;2022-08-19T09:47:23;25.77;;;21.53;;
1204;SDS011;592;48.764;9.174;2022-08-19T09:49:50;26.53;;;21.10;;
1204;SDS011;592;48.764;9.174;2022-08-19T09:52:17;26.20;;;18.97;;
1204;SDS011;592;48.764;9.174;2022-08-19T09:54:43;25.40;;;20.70;;
1204;SDS011;592;48.764;9.174;2022-08-19T09:57:10;28.63;;;22.13;;
1204;SDS011;592;48.764;9.174;2022-08-19T09:59:38;24.73;;;19.90;;
1204;SDS011;592;48.764;9.174;2022-08-19T10:02:05;24.53;;;20.00;;
1204;SDS011;592;48.764;9.174;2022-08-19T10:04:32;24.50;;;19.60;;
1204;SDS011;592;48.764;9.174;2022-08-19T10:07:13;24.57;;;19.13;;
1204;SDS011;592;48.764;9.174;2022-08-19T10:09:40;25.07;;;20.90;;
1204;SDS011;592;48.764;9.174;2022-08-19T10:12:07;22.67;;;18.80;;
1204;SDS011;592;48.764;9.174;2022-08-19T10:14:34;24.87;;;19.93;;
1204;SDS011;592;48.764;9.174;2022-08-19T10:17:02;23.90;;;18.80;;
1204;SDS011;592;48.764;9.174;2022-08-19T10:19:30;21.70;;;18.60;;
1204;SDS011;592;48.764;9.174;2022-08-19T10:22:02;24.70;;;19.27;;
1204;SDS011;592;48.764;9.174;2022-08-19T10:24:29;22.00;;;18.43;;
1204;SDS011;592;48.764;9.174;2022-08-19T10:26:57;22.83;;;19.00;;
1204;SDS011;592;48.764;9.174;2022-08-19T10:29:23;21.17;;;16.87;;
1204;SDS011;592;48.764;9.174;2022-08-19T10:31:53;21.10;;;18.77;;
1204;SDS011;592;48.764;9.174;2022-08-19T10:34:22;22.50;;;18.80;;
1204;SDS011;592;48.764;9.174;2022-08-19T10:36:48;23.93;;;19.27;;
1204;SDS011;592;48.764;9.174;2022-08-19T10:39:16;44.13;;;19.33;;
1204;SDS011;592;48.764;9.174;2022-08-19T10:41:43;31.03;;;18.67;;
1204;SDS011;592;48.764;9.174;2022-08-19T10:44:10;24.03;;;17.67;;
1204;SDS011;592;48.764;9.174;2022-08-19T10:46:40;18.17;;;15.30;;
1204;SDS011;592;48.764;9.174;2022-08-19T10:49:10;21.83;;;16.20;;
1204;SDS011;592;48.764;9.174;2022-08-19T10:51:38;26.93;;;18.30;;
1204;SDS011;592;48.764;9.174;2022-08-19T10:54:23;19.10;;;16.03;;
1204;SDS011;592;48.764;9.174;2022-08-19T10:57:11;15.83;;;13.73;;
1204;SDS011;592;48.764;9.174;2022-08-19T10:59:36;18.57;;;15.50;;
1204;SDS011;592;48.764;9.174;2022-08-19T11:02:04;18.07;;;15.37;;
1204;SDS011;592;48.764;9.174;2022-08-19T11:04:34;18.90;;;15.67;;
1204;SDS011;592;48.764;9.174;2022-08-19T11:07:03;16.70;;;14.07;;
1204;SDS011;592;48.764;9.174;2022-08-19T11:09:30;19.13;;;16.00;;
1204;SDS011;592;48.764;9.174;2022-08-19T11:12:02;17.00;;;14.40;;
1204;SDS011;592;48.764;9.174;2022-08-19T11:14:29;17.60;;;14.13;;
1204;SDS011;592;48.764;9.174;2022-08-19T11:16:58;17.43;;;15.43;;
1204;SDS011;592;48.764;9.174;2022-08-19T11:19:24;16.50;;;14.73;;
1204;SDS011;592;48.764;9.174;2022-08-19T11:21:52;20.00;;;15.00;;
1204;SDS011;592;48.764;9.174;2022-08-19T11:24:21;16.20;;;14.00;;
1204;SDS011;592;48.764;9.174;2022-08-19T11:26:49;16.87;;;14.87;;
1204;SDS011;592;48.764;9.174;2022-08-19T11:29:18;19.93;;;15.50;;
1204;SDS011;592;48.764;9.174;2022-08-19T11:31:47;21.57;;;15.40;;
1204;SDS011;592;48.764;9.174;2022-08-19T11:34:16;16.23;;;13.30;;
1204;SDS011;592;48.764;9.174;2022-08-19T11:36:45;15.83;;;13.83;;
1204;SDS011;592;48.764;9.174;2022-08-19T11:39:14;19.20;;;14.27;;
1204;SDS011;592;48.764;9.174;2022-08-19T11:41:43;18.40;;;15.10;;
1204;SDS011;592;48.764;9.174;2022-08-19T11:44:10;15.07;;;13.47;;
1204;SDS011;592;48.764;9.174;2022-08-19T11:46:39;21.13;;;14.70;;
1204;SDS011;592;48.764;9.174;2022-08-19T11:49:06;16.50;;;13.77;;
1204;SDS011;592;48.764;9.174;2022-08-19T11:51:34;16.03;;;13.57;;
1204;SDS011;592;48.764;9.174;2022-08-19T11:54:01;17.40;;;13.40;;
1204;SDS011;592;48.764;9.174;2022-08-19T11:56:30;16.00;;;13.53;;
1204;SDS011;592;48.764;9.174;2022-08-19T11:58:59;16.23;;;13.63;;
1204;SDS011;592;48.764;9.174;2022-08-19T12:01:27;14.63;;;12.27;;
1204;SDS011;592;48.764;9.174;2022-08-19T12:03:54;16.93;;;13.33;;
1204;SDS011;592;48.764;9.174;2022-08-19T12:06:23;15.33;;;11.80;;
1204;SDS011;592;48.764;9.174;2022-08-19T12:08:53;19.80;;;14.33;;
1204;SDS011;592;48.764;9.174;2022-08-19T12:11:20;14.70;;;13.10;;
1204;SDS011;592;48.764;9.174;2022-08-19T12:13:48;16.57;;;13.00;;
1204;SDS011;592;48.764;9.174;2022-08-19T12:16:17;17.07;;;13.60;;
1204;SDS011;592;48.764;9.174;2022-08-19T12:18:45;19.70;;;13.93;;
1204;SDS011;592;48.764;9.174;2022-08-19T12:21:13;15.37;;;12.77;;
1204;SDS011;592;48.764;9.174;2022-08-19T12:23:40;17.23;;;13.73;;
1204;SDS011;592;48.764;9.174;2022-08-19T12:26:08;18.60;;;13.50;;
1204;SDS011;592;48.764;9.174;2022-08-19T12:28:35;15.77;;;13.27;;
1204;SDS011;592;48.764;9.174;2022-08-19T12:31:03;16.17;;;13.07;;
1204;SDS011;592;48.764;9.174;2022-08-19T12:33:31;15.60;;;13.00;;
1204;SDS011;592;48.764;9.174;2022-08-19T12:35:59;18.13;;;13.13;;
1204;SDS011;592;48.764;9.174;2022-08-19T12:38:28;14.93;;;13.17;;
1204;SDS011;592;48.764;9.174;2022-08-19T12:40:54;16.13;;;13.00;;
1204;SDS011;592;48.764;9.174;2022-08-19T12:43:21;17.03;;;13.70;;
1204;SDS011;592;48.764;9.174;2022-08-19T12:45:48;15.07;;;13.10;;
1204;SDS011;592;48.764;9.174;2022-08-19T12:48:15;18.17;;;14.13;;
1204;SDS011;592;48.764;9.174;2022-08-19T12:50:44;15.83;;;13.57;;
1204;SDS011;592;48.764;9.174;2022-08-19T12:53:11;18.77;;;14.10;;
1204;SDS011;592;48.764;9.174;2022-08-19T12:55:38;16.10;;;12.73;;
1204;SDS011;592;48.764;9.174;2022-08-19T12:58:05;16.73;;;12.77;;
1204;SDS011;592;48.764;9.174;2022-08-19T13:00:32;17.70;;;14.60;;
1204;SDS011;592;48.764;9.174;2022-08-19T13:02:59;17.50;;;13.00;;
1204;SDS011;592;48.764;9.174;2022-08-19T13:05:27;17.07;;;13.17;;
1204;SDS011;592;48.764;9.174;2022-08-19T13:07:58;17.70;;;15.00;;
1204;SDS011;592;48.764;9.174;2022-08-19T13:10:26;16.87;;;14.20;;
1204;SDS011;592;48.764;9.174;2022-08-19T13:12:55;19.00;;;16.33;;
1204;SDS011;592;48.764;9.174;2022-08-19T13:15:24;17.50;;;15.60;;
1204;SDS011;592;48.764;9.174;2022-08-19T13:17:53;19.33;;;16.20;;
1204;SDS011;592;48.764;9.174;2022-08-19T13:20:21;21.27;;;18.07;;
1204;SDS011;592;48.764;9.174;2022-08-19T13:22:49;20.53;;;18.10;;
1204;SDS011;592;48.764;9.174;2022-08-19T13:25:18;23.17;;;19.93;;
1204;SDS011;592;48.764;9.174;2022-08-19T13:27:45;27.50;;;22.10;;
1204;SDS011;592;48.764;9.174;2022-08-19T13:30:13;27.80;;;22.80;;
1204;SDS011;592;48.764;9.174;2022-08-19T13:32:59;29.70;;;22.87;;
1204;SDS011;592;48.764;9.174;2022-08-19T13:35:40;26.27;;;23.40;;
1204;SDS011;592;48.764;9.174;2022-08-19T13:38:08;28.33;;;23.80;;
1204;SDS011;592;48.764;9.174;2022-08-19T13:40:36;28.40;;;23.67;;
1204;SDS011;592;48.764;9.174;2022-08-19T13:43:04;27.57;;;23.83;;
1204;SDS011;592;48.764;9.174;2022-08-19T13:45:32;29.80;;;23.90;;
1204;SDS011;592;48.764;9.174;2022-08-19T13:47:59;32.03;;;26.70;;
1204;SDS011;592;48.764;9.174;2022-08-19T13:50:31;34.07;;;25.40;;
1204;SDS011;592;48.764;9.174;2022-08-19T13:52:59;30.33;;;25.37;;
1204;SDS011;592;48.764;9.174;2022-08-19T13:55:27;31.90;;;24.90;;
1204;SDS011;592;48.764;9.174;2022-08-19T13:57:56;33.70;;;26.67;;
1204;SDS011;592;48.764;9.174;2022-08-19T14:00:25;34.30;;;27.13;;
1204;SDS011;592;48.764;9.174;2022-08-19T14:02:54;35.20;;;26.93;;
1204;SDS011;592;48.764;9.174;2022-08-19T14:05:22;41.53;;;30.07;;
1204;SDS011;592;48.764;9.174;2022-08-19T14:07:51;35.47;;;29.90;;
1204;SDS011;592;48.764;9.174;2022-08-19T14:10:18;35.47;;;29.70;;
1204;SDS011;592;48.764;9.174;2022-08-19T14:12:46;39.20;;;32.33;;
1204;SDS011;592;48.764;9.174;2022-08-19T14:15:15;37.13;;;29.90;;
1204;SDS011;592;48.764;9.174;2022-08-19T14:17:43;37.83;;;29.73;;
1204;SDS011;592;48.764;9.174;2022-08-19T14:20:12;41.40;;;31.33;;
1204;SDS011;592;48.764;9.174;2022-08-19T14:22:41;35.00;;;29.17;;
1204;SDS011;592;48.764;9.174;2022-08-19T14:25:10;40.83;;;28.70;;
1204;SDS011;592;48.764;9.174;2022-08-19T14:27:41;35.90;;;29.47;;
1204;SDS011;592;48.764;9.174;2022-08-19T14:30:09;32.93;;;28.07;;
1204;SDS011;592;48.764;9.174;2022-08-19T14:32:40;33.17;;;28.50;;
1204;SDS011;592;48.764;9.174;2022-08-19T14:35:09;34.47;;;28.03;;
1204;SDS011;592;48.764;9.174;2022-08-19T14:37:37;33.77;;;28.23;;
1204;SDS011;592;48.764;9.174;2022-08-19T14:40:05;30.70;;;26.73;;
1204;SDS011;592;48.764;9.174;2022-08-19T14:42:33;30.00;;;25.13;;
1204;SDS011;592;48.764;9.174;2022-08-19T14:45:00;29.10;;;25.53;;
1204;SDS011;592;48.764;9.174;2022-08-19T14:47:27;33.00;;;25.30;;
1204;SDS011;592;48.764;9.174;2022-08-19T14:49:55;31.47;;;26.27;;
1204;SDS011;592;48.764;9.174;2022-08-19T14:52:22;30.13;;;26.00;;
1204;SDS011;592;48.764;9.174;2022-08-19T14:54:48;28.40;;;24.57;;
1204;SDS011;592;48.764;9.174;2022-08-19T14:57:15;31.57;;;25.33;;
1204;SDS011;592;48.764;9.174;2022-08-19T14:59:42;27.87;;;21.60;;
1204;SDS011;592;48.764;9.174;2022-08-19T15:02:09;26.57;;;22.80;;
1204;SDS011;592;48.764;9.174;2022-08-19T15:04:36;27.40;;;22.53;;
1204;SDS011;592;48.764;9.174;2022-08-19T15:07:05;26.27;;;22.70;;
1204;SDS011;592;48.764;9.174;2022-08-19T15:09:31;26.33;;;21.73;;